Time;durP1;ratioP1;P1;durP2;ratioP2;P2;SDS_P1;SDS_P2;PMS_P1;PMS_P2;Temp;Humidity;BMP_temperature;BMP_pressure;BME280_temperature;BME280_humidity;BME280_pressure;Samples;Min_cycle;Max_cycle;Signal;HPM_P1;HPM_P2
2022/08/22 00:01:20;;;;;;;23.47;4.17;;;;;;;21.56;67.25;99929.30;1721311;83;21059;-67
2022/08/22 00:04:17;;;;;;;22.67;4.92;;;;;;;21.56;67.15;99930.69;1722154;82;21026;-66
2022/08/22 00:07:01;;;;;;;23.52;4.95;;;;;;;21.58;66.97;99935.98;1722070;81;21003;-65
2022/08/22 00:09:57;;;;;;;23.98;4.17;;;;;;;21.57;66.97;99932.36;1751465;82;21046;-66
2022/08/22 00:12:49;;;;;;;25.20;4.33;;;;;;;21.58;66.91;99930.41;1752362;81;21093;-68
2022/08/22 00:15:34;;;;;;;23.18;4.60;;;;;;;21.55;67.07;99922.05;1764044;81;21004;-66
2022/08/22 00:18:27;;;;;;;20.27;4.42;;;;;;;21.50;67.18;99923.45;1638072;85;21011;-66
2022/08/22 00:21:23;;;;;;;19.77;3.83;;;;;;;21.46;67.53;99920.95;1724393;82;21114;-67
2022/08/22 00:24:10;;;;;;;20.27;4.75;;;;;;;21.44;67.76;99932.34;1751140;82;21455;-66
2022/08/22 00:27:09;;;;;;;21.42;4.78;;;;;;;21.39;68.03;99932.36;1751186;82;20987;-66
2022/08/22 00:29:47;;;;;;;24.20;4.92;;;;;;;21.36;68.02;99933.47;1751124;82;21047;-66
2022/08/22 00:32:38;;;;;;;20.57;5.05;;;;;;;21.34;67.62;99935.70;1750930;82;20995;-66
2022/08/22 00:35:15;;;;;;;21.40;4.72;;;;;;;21.33;67.73;99934.03;1756137;81;21015;-66
2022/08/22 00:38:06;;;;;;;29.55;4.92;;;;;;;21.33;67.71;99934.88;1764322;81;21008;-66
2022/08/22 00:40:56;;;;;;;22.35;4.70;;;;;;;21.33;67.58;99939.61;1684167;84;21083;-65
2022/08/22 00:43:42;;;;;;;22.93;4.00;;;;;;;21.29;67.44;99940.72;1763031;81;21071;-66
2022/08/22 00:46:50;;;;;;;23.27;4.35;;;;;;;21.28;67.43;99941.00;1763591;81;21094;-65
2022/08/22 00:49:43;;;;;;;22.98;4.65;;;;;;;21.26;67.48;99947.41;1764259;81;21063;-65
2022/08/22 00:52:27;;;;;;;30.00;5.78;;;;;;;21.26;67.29;99951.59;1758681;81;21046;-65
2022/08/22 00:55:32;;;;;;;21.77;4.40;;;;;;;21.24;67.33;99951.04;1678942;85;21052;-67
2022/08/22 00:58:43;;;;;;;20.60;4.33;;;;;;;21.22;67.61;99954.07;1745569;82;21038;-66
2022/08/22 01:01:13;;;;;;;20.68;4.22;;;;;;;21.20;67.90;99950.17;1745874;82;21059;-66
2022/08/22 01:03:54;;;;;;;31.70;4.50;;;;;;;21.14;68.24;99944.88;1745415;82;21051;-66
2022/08/22 01:06:39;;;;;;;29.05;4.40;;;;;;;21.12;68.40;99939.58;1745846;82;20987;-67
2022/08/22 01:09:29;;;;;;;20.92;4.60;;;;;;;21.08;68.51;99941.81;1745959;82;21055;-66
2022/08/22 01:12:13;;;;;;;21.82;4.45;;;;;;;21.01;68.78;99942.64;1746092;81;21050;-65
2022/08/22 01:15:02;;;;;;;22.48;4.40;;;;;;;20.96;68.94;99942.64;1748660;82;21082;-67
2022/08/22 01:18:05;;;;;;;20.55;4.45;;;;;;;20.91;69.10;99947.65;1748224;82;21501;-67
2022/08/22 01:21:17;;;;;;;21.15;4.30;;;;;;;20.88;69.23;99955.17;1748722;82;21473;-64
2022/08/22 01:24:29;;;;;;;24.32;4.92;;;;;;;20.82;69.52;99951.54;1757441;81;21648;-66
2022/08/22 01:27:34;;;;;;;21.97;5.03;;;;;;;20.73;69.86;99950.38;1758576;81;21012;-66
2022/08/22 01:30:41;;;;;;;17.92;4.30;;;;;;;20.68;70.18;99945.36;1758782;81;21039;-64
2022/08/22 01:33:54;;;;;;;20.57;3.83;;;;;;;20.60;70.41;99952.86;1758395;81;21000;-65
2022/08/22 01:37:09;;;;;;;27.70;4.90;;;;;;;20.53;70.40;99949.78;1679105;85;21072;-66
2022/08/22 01:40:23;;;;;;;21.27;3.92;;;;;;;20.54;70.23;99953.40;1644046;87;21079;-67
2022/08/22 01:43:24;;;;;;;21.15;4.17;;;;;;;20.56;70.22;99950.63;1707241;83;21487;-67
2022/08/22 01:46:06;;;;;;;26.33;4.00;;;;;;;20.56;70.33;99956.19;1707557;84;21035;-66
2022/08/22 01:48:41;;;;;;;22.50;4.42;;;;;;;20.57;70.48;99959.81;1707193;84;21003;-66
2022/08/22 01:51:24;;;;;;;16.12;4.03;;;;;;;20.58;70.40;99959.53;1655158;83;21064;-65
2022/08/22 01:54:10;;;;;;;26.23;4.20;;;;;;;20.58;70.44;99961.48;1686931;81;21074;-67
2022/08/22 01:56:43;;;;;;;24.90;4.37;;;;;;;20.55;70.44;99953.68;1684450;85;21103;-65
2022/08/22 01:59:25;;;;;;;26.65;5.03;;;;;;;20.53;70.58;99954.52;1709425;84;21035;-66
2022/08/22 02:02:23;;;;;;;27.80;4.22;;;;;;;20.52;70.43;99953.67;1684492;84;21056;-66
2022/08/22 02:05:22;;;;;;;27.58;5.17;;;;;;;20.52;70.50;99955.62;1709568;84;21648;-65
2022/08/22 02:07:57;;;;;;;16.67;4.37;;;;;;;20.48;70.55;99957.28;1684858;85;21055;-66
2022/08/22 02:10:50;;;;;;;14.75;4.20;;;;;;;20.40;70.72;99960.04;1667963;84;21040;-65
2022/08/22 02:13:45;;;;;;;25.57;4.30;;;;;;;20.38;70.88;99963.62;1709365;84;21431;-66
2022/08/22 02:16:39;;;;;;;16.42;4.47;;;;;;;20.37;70.92;99960.55;1709569;84;21083;-66
2022/08/22 02:19:20;;;;;;;23.90;4.17;;;;;;;20.36;70.76;99964.45;1670542;84;21019;-66
2022/08/22 02:22:00;;;;;;;22.82;4.55;;;;;;;20.26;70.87;99962.46;1669482;84;21013;-66
2022/08/22 02:24:56;;;;;;;25.60;4.00;;;;;;;20.24;70.90;99963.84;1706829;84;21131;-65
2022/08/22 02:27:48;;;;;;;25.10;3.77;;;;;;;20.23;70.63;99969.96;1649175;87;21491;-66
2022/08/22 02:30:41;;;;;;;16.93;3.30;;;;;;;20.26;70.22;99979.16;1649127;87;21043;-65
2022/08/22 02:33:26;;;;;;;19.75;3.87;;;;;;;20.28;69.64;99976.09;1649198;87;21034;-66
2022/08/22 02:36:10;;;;;;;20.17;3.72;;;;;;;20.28;69.43;99969.14;1655380;85;21054;-65
2022/08/22 02:39:00;;;;;;;20.90;3.87;;;;;;;20.27;69.53;99974.42;1676504;85;21039;-66
2022/08/22 02:41:39;;;;;;;19.40;3.67;;;;;;;20.26;69.74;99985.27;1676765;85;21012;-66
2022/08/22 02:44:29;;;;;;;20.62;3.77;;;;;;;20.25;69.59;99978.87;1676453;85;21068;-67
2022/08/22 02:47:31;;;;;;;22.75;4.40;;;;;;;20.21;69.50;99979.69;1666911;85;21051;-67
2022/08/22 02:50:26;;;;;;;19.80;4.20;;;;;;;20.18;69.19;99985.23;1676458;85;21055;-66
2022/08/22 02:53:22;;;;;;;15.93;4.10;;;;;;;20.17;69.17;99982.17;1687596;85;21512;-65
2022/08/22 02:56:14;;;;;;;24.25;3.83;;;;;;;20.12;69.44;99982.67;1660623;86;21094;-67
2022/08/22 02:59:15;;;;;;;17.90;4.05;;;;;;;20.11;69.54;99990.18;1643570;86;21065;-67
2022/08/22 03:01:46;;;;;;;19.98;4.00;;;;;;;20.12;69.45;99991.02;1654926;87;21039;-66
2022/08/22 03:04:42;;;;;;;18.25;4.20;;;;;;;20.10;69.36;99991.84;1662796;86;21098;-66
2022/08/22 03:07:23;;;;;;;20.90;3.58;;;;;;;20.05;69.17;99987.64;1682485;85;21062;-65
2022/08/22 03:10:23;;;;;;;16.20;3.62;;;;;;;20.02;69.16;99995.14;1708856;84;21048;-66
2022/08/22 03:13:33;;;;;;;13.00;3.52;;;;;;;20.00;68.92;99991.79;1709668;84;21052;-66
2022/08/22 03:16:17;;;;;;;16.00;4.00;;;;;;;19.97;69.07;99995.11;1684762;85;21111;-67
2022/08/22 03:19:12;;;;;;;22.87;3.98;;;;;;;19.94;69.18;99990.92;1680577;84;21102;-67
2022/08/22 03:21:57;;;;;;;17.07;3.90;;;;;;;19.95;69.18;99996.77;1684387;84;21024;-68
2022/08/22 03:25:06;;;;;;;17.52;3.65;;;;;;;19.93;69.21;99995.65;1709395;84;21067;-68
2022/08/22 03:27:53;;;;;;;19.57;3.52;;;;;;;19.90;69.24;100001.75;1684846;85;21023;-66
2022/08/22 03:30:34;;;;;;;20.65;4.08;;;;;;;19.91;68.99;99993.69;1682514;85;21096;-66
2022/08/22 03:33:24;;;;;;;18.00;4.28;;;;;;;19.92;69.07;99999.54;1644468;86;21112;-67
2022/08/22 03:36:08;;;;;;;14.83;3.20;;;;;;;19.89;69.14;100008.41;1661850;86;21084;-67
2022/08/22 03:38:49;;;;;;;19.55;3.70;;;;;;;19.86;68.90;99999.22;1662738;86;21116;-67
2022/08/22 03:42:15;;;;;;;15.43;3.95;;;;;;;19.83;68.83;100003.93;1662977;86;21103;-65
2022/08/22 03:45:27;;;;;;;13.70;3.50;;;;;;;19.84;68.61;100011.16;1662750;86;21048;-66
2022/08/22 03:48:43;;;;;;;18.40;4.35;;;;;;;19.85;68.29;100023.96;1662755;86;21492;-67
2022/08/22 03:51:32;;;;;;;14.30;3.50;;;;;;;19.87;67.96;100020.36;1638097;86;21552;-65
2022/08/22 03:54:10;;;;;;;17.12;3.45;;;;;;;19.92;67.31;100020.39;1665933;84;21008;-65
2022/08/22 03:57:07;;;;;;;17.95;3.50;;;;;;;19.92;67.11;100025.12;1676992;85;21032;-66
2022/08/22 04:00:00;;;;;;;12.70;3.58;;;;;;;19.93;66.89;100031.80;1671838;85;21075;-68
2022/08/22 04:03:03;;;;;;;15.10;3.22;;;;;;;20.00;66.29;100033.51;1676996;84;21518;-66
2022/08/22 04:05:44;;;;;;;11.03;3.45;;;;;;;20.05;65.60;100029.36;1677030;85;21526;-65
2022/08/22 04:08:53;;;;;;;15.03;3.83;;;;;;;20.08;65.50;100030.22;1677002;85;21059;-65
2022/08/22 04:11:58;;;;;;;16.70;3.67;;;;;;;20.10;65.50;100032.17;1676802;85;21032;-66
2022/08/22 04:14:48;;;;;;;17.35;3.72;;;;;;;20.12;65.42;100038.30;1669772;85;21536;-65
2022/08/22 04:17:54;;;;;;;19.30;3.65;;;;;;;20.14;66.03;100031.92;1710655;83;21031;-66
2022/08/22 04:20:58;;;;;;;13.78;3.42;;;;;;;20.17;66.22;100036.98;1684625;85;21081;-66
2022/08/22 04:24:10;;;;;;;19.25;4.20;;;;;;;20.21;66.10;100036.72;1690715;85;21060;-66
2022/08/22 04:26:56;;;;;;;11.68;3.25;;;;;;;20.20;66.23;100042.00;1690452;85;21274;-65
2022/08/22 04:29:39;;;;;;;13.43;3.60;;;;;;;20.21;66.25;100038.95;1690663;85;21077;-66
2022/08/22 04:32:19;;;;;;;17.23;3.95;;;;;;;20.23;65.67;100045.08;1690607;84;21044;-67
2022/08/22 04:34:53;;;;;;;16.23;3.55;;;;;;;20.27;65.15;100048.16;1663708;85;21047;-66
2022/08/22 04:37:29;;;;;;;12.10;3.17;;;;;;;20.30;64.43;100046.23;1709406;84;21051;-67
2022/08/22 04:40:16;;;;;;;14.03;3.35;;;;;;;20.35;63.83;100040.69;1684946;84;21055;-66
2022/08/22 04:42:50;;;;;;;20.35;3.80;;;;;;;20.39;63.08;100046.02;1709396;84;21083;-68
2022/08/22 04:45:28;;;;;;;17.92;3.60;;;;;;;20.43;62.93;100042.98;1684633;84;21476;-67
2022/08/22 04:48:17;;;;;;;13.15;3.47;;;;;;;20.45;63.22;100042.71;1713354;84;21036;-66
2022/08/22 04:51:23;;;;;;;17.25;3.72;;;;;;;20.44;63.20;100047.44;1637767;87;21035;-67
2022/08/22 04:54:13;;;;;;;16.50;3.50;;;;;;;20.46;62.22;100048.00;1671592;85;21079;-66
2022/08/22 04:57:18;;;;;;;13.30;3.15;;;;;;;20.52;61.54;100053.04;1671660;86;21676;-66
2022/08/22 04:59:48;;;;;;;15.10;3.22;;;;;;;20.56;61.14;100055.56;1671802;86;21557;-66
2022/08/22 05:02:26;;;;;;;17.65;3.92;;;;;;;20.62;60.32;100055.86;1626310;86;21154;-67
2022/08/22 05:05:04;;;;;;;15.93;3.60;;;;;;;20.66;59.92;100057.55;1671832;86;21064;-66
2022/08/22 05:07:39;;;;;;;14.43;4.08;;;;;;;20.69;60.21;100055.61;1671678;86;21538;-68
2022/08/22 05:10:19;;;;;;;15.95;3.35;;;;;;;20.73;59.82;100056.73;1660254;86;21039;-65
2022/08/22 05:12:56;;;;;;;21.30;5.50;;;;;;;20.78;59.88;100055.37;1660357;86;21032;-66
2022/08/22 05:15:42;;;;;;;13.18;3.58;;;;;;;20.82;59.53;100053.73;1682408;85;21083;-67
2022/08/22 05:18:19;;;;;;;18.25;3.20;;;;;;;20.89;59.23;100059.89;1719024;83;21038;-67
2022/08/22 05:20:49;;;;;;;15.20;3.12;;;;;;;20.94;57.94;100057.67;1719046;83;21462;-66
2022/08/22 05:23:28;;;;;;;20.08;4.12;;;;;;;20.98;57.88;100058.80;1718786;83;21491;-68
2022/08/22 05:26:00;;;;;;;10.10;2.95;;;;;;;21.02;57.73;100063.55;1718253;83;21462;-68
2022/08/22 05:28:46;;;;;;;10.63;3.22;;;;;;;21.06;57.91;100060.48;1735703;82;21031;-67
2022/08/22 05:31:28;;;;;;;19.27;3.87;;;;;;;21.10;57.63;100063.00;1748475;82;21067;-68
2022/08/22 05:34:08;;;;;;;14.60;3.85;;;;;;;21.18;57.61;100064.41;1748612;82;21074;-66
2022/08/22 05:36:56;;;;;;;16.42;4.20;;;;;;;21.24;57.59;100061.11;1748602;82;21058;-65
2022/08/22 05:39:26;;;;;;;12.95;3.47;;;;;;;21.30;57.50;100060.00;1724125;82;21070;-65
2022/08/22 05:42:00;;;;;;;18.95;3.65;;;;;;;21.36;57.19;100061.68;1748766;82;21014;-68
2022/08/22 05:44:33;;;;;;;22.70;4.42;;;;;;;21.44;56.66;100061.13;1748693;82;21075;-70
2022/08/22 05:47:14;;;;;;;15.88;3.50;;;;;;;21.50;56.70;100067.02;1748606;82;21521;-66
2022/08/22 05:50:03;;;;;;;13.93;3.20;;;;;;;21.54;56.26;100058.94;1748525;81;21015;-67
2022/08/22 05:52:47;;;;;;;11.05;2.95;;;;;;;21.60;56.37;100073.16;1753105;81;21019;-68
2022/08/22 05:55:40;;;;;;;19.12;3.42;;;;;;;21.64;55.63;100063.95;1682033;85;21060;-68
2022/08/22 05:58:42;;;;;;;12.82;3.15;;;;;;;21.68;55.08;100065.62;1761406;81;21079;-68
2022/08/22 06:01:23;;;;;;;14.07;2.83;;;;;;;21.77;54.80;100062.55;1682029;85;21040;-69
2022/08/22 06:04:28;;;;;;;14.40;4.53;;;;;;;21.90;54.01;100065.33;1761599;81;21502;-66
2022/08/22 06:07:25;;;;;;;15.60;3.22;;;;;;;21.99;53.77;100064.48;1760522;81;21047;-66
2022/08/22 06:10:20;;;;;;;13.45;3.02;;;;;;;22.07;53.69;100063.11;1761383;81;21036;-67
2022/08/22 06:13:07;;;;;;;19.65;3.62;;;;;;;22.12;53.68;100061.17;1681986;85;21047;-68
2022/08/22 06:15:52;;;;;;;14.53;3.55;;;;;;;22.14;53.64;100059.49;1761405;81;21059;-68
2022/08/22 06:18:24;;;;;;;17.55;3.40;;;;;;;22.16;53.50;100065.62;1682095;85;21056;-68
2022/08/22 06:21:03;;;;;;;13.32;3.22;;;;;;;22.25;53.31;100065.89;1761322;81;20984;-69
2022/08/22 06:23:47;;;;;;;13.20;3.20;;;;;;;22.31;53.05;100063.36;1761274;81;21079;-64
2022/08/22 06:26:16;;;;;;;15.90;3.27;;;;;;;22.38;52.53;100064.73;1756745;81;21432;-66
2022/08/22 06:28:52;;;;;;;15.72;3.08;;;;;;;22.40;52.06;100058.30;1761468;81;21042;-68
2022/08/22 06:31:31;;;;;;;14.78;3.77;;;;;;;22.41;51.74;100054.39;1761429;81;21059;-68
2022/08/22 06:34:13;;;;;;;19.60;3.77;;;;;;;22.45;51.69;100058.28;1761243;81;21425;-67
2022/08/22 06:36:47;;;;;;;17.05;5.05;;;;;;;22.54;51.74;100060.48;1761374;81;21048;-68
2022/08/22 06:39:31;;;;;;;16.60;3.60;;;;;;;22.60;52.13;100057.39;1681945;84;21032;-68
2022/08/22 06:42:10;;;;;;;21.30;3.90;;;;;;;22.67;51.73;100055.69;1734451;81;21058;-68
2022/08/22 06:44:50;;;;;;;20.88;4.12;;;;;;;22.72;51.05;100050.91;1730542;83;21040;-69
2022/08/22 06:47:28;;;;;;;19.73;4.20;;;;;;;22.83;51.10;100059.30;1731672;81;21436;-69
2022/08/22 06:50:06;;;;;;;12.35;3.12;;;;;;;22.94;50.61;100058.96;1729658;83;21020;-68
2022/08/22 06:53:07;;;;;;;12.60;3.08;;;;;;;23.09;49.81;100060.27;1734709;81;21027;-67
2022/08/22 06:55:39;;;;;;;17.30;3.75;;;;;;;23.30;49.57;100052.58;1716125;83;21031;-68
2022/08/22 06:58:16;;;;;;;14.10;3.35;;;;;;;23.65;48.69;100047.34;1716185;83;21027;-68
2022/08/22 07:00:47;;;;;;;17.75;3.42;;;;;;;23.98;47.97;100048.42;1716043;83;21059;-67
2022/08/22 07:03:35;;;;;;;15.32;3.35;;;;;;;24.27;47.34;100041.46;1676700;85;21091;-68
2022/08/22 07:06:07;;;;;;;14.28;3.47;;;;;;;24.54;47.21;100044.23;1716844;82;21051;-70
2022/08/22 07:08:37;;;;;;;17.37;4.12;;;;;;;24.87;46.00;100039.05;1715890;83;21047;-67
2022/08/22 07:11:20;;;;;;;15.10;5.22;;;;;;;25.24;45.62;100040.23;1715963;83;21075;-67
2022/08/22 07:14:05;;;;;;;13.05;3.17;;;;;;;25.56;45.11;100036.66;1716344;83;20995;-69
2022/08/22 07:16:48;;;;;;;13.65;2.90;;;;;;;25.85;44.32;100038.70;1715967;83;21038;-67
2022/08/22 07:19:32;;;;;;;13.05;3.25;;;;;;;26.08;42.76;100036.91;1678387;85;21106;-68
2022/08/22 07:22:24;;;;;;;23.47;3.55;;;;;;;26.25;42.39;100039.69;1716160;83;21134;-67
2022/08/22 07:24:59;;;;;;;21.60;5.42;;;;;;;26.38;42.87;100039.73;1724492;81;21016;-68
2022/08/22 07:27:53;;;;;;;20.25;4.03;;;;;;;26.61;42.37;100036.45;1758547;81;21406;-69
2022/08/22 07:30:23;;;;;;;14.53;3.50;;;;;;;26.80;41.98;100031.56;1758351;81;21004;-68
2022/08/22 07:33:05;;;;;;;14.85;3.22;;;;;;;27.12;41.57;100037.62;1671065;85;21036;-68
2022/08/22 07:35:42;;;;;;;18.80;3.42;;;;;;;27.60;40.82;100037.05;1755661;81;21091;-69
2022/08/22 07:38:27;;;;;;;18.67;3.33;;;;;;;28.03;39.27;100033.16;1669350;85;21087;-69
2022/08/22 07:41:12;;;;;;;19.65;4.60;;;;;;;28.19;39.60;100031.34;1758399;81;21067;-71
2022/08/22 07:44:07;;;;;;;20.57;3.50;;;;;;;28.43;38.72;100031.80;1758337;81;21464;-69
2022/08/22 07:46:41;;;;;;;15.45;3.92;;;;;;;28.57;38.91;100035.92;1678946;84;21548;-68
2022/08/22 07:49:20;;;;;;;20.15;3.98;;;;;;;28.79;38.28;100033.02;1758427;81;21000;-68
2022/08/22 07:52:01;;;;;;;16.17;3.80;;;;;;;28.93;38.30;100030.92;1758494;81;21055;-70
2022/08/22 07:54:56;;;;;;;18.00;4.05;;;;;;;29.07;38.18;100030.78;1738522;81;21099;-66
2022/08/22 07:57:30;;;;;;;19.75;4.08;;;;;;;29.04;38.57;100031.44;1748125;81;21105;-66
2022/08/22 08:00:01;;;;;;;16.97;4.05;;;;;;;28.90;38.77;100027.94;1748357;82;21086;-67
2022/08/22 08:02:33;;;;;;;12.78;3.52;;;;;;;28.88;39.59;100029.67;1747905;81;21079;-66
2022/08/22 08:05:03;;;;;;;17.42;4.00;;;;;;;29.03;39.03;100028.38;1651571;87;21062;-66
2022/08/22 08:07:33;;;;;;;19.00;3.67;;;;;;;29.14;38.47;100020.41;1715797;83;21478;-68
2022/08/22 08:10:07;;;;;;;16.30;3.95;;;;;;;29.25;38.33;100026.81;1715844;83;21062;-67
2022/08/22 08:12:40;;;;;;;22.27;4.17;;;;;;;29.28;37.14;100024.77;1715928;83;21039;-68
2022/08/22 08:15:18;;;;;;;20.27;4.15;;;;;;;29.17;37.12;100027.64;1734822;81;21071;-68
2022/08/22 08:17:56;;;;;;;16.37;3.60;;;;;;;29.14;37.69;100028.30;1678411;85;21007;-68
2022/08/22 08:20:30;;;;;;;15.95;3.80;;;;;;;29.18;37.74;100025.64;1733943;82;21020;-67
2022/08/22 08:23:00;;;;;;;20.10;3.47;;;;;;;29.32;37.41;100025.77;1722923;82;21071;-70
2022/08/22 08:25:30;;;;;;;18.32;4.17;;;;;;;29.46;37.17;100020.56;1678262;85;21124;-68
2022/08/22 08:30:55;;;;;;;13.83;4.05;;;;;;;29.70;37.02;100018.04;1746134;81;21680;-66
2022/08/22 08:33:27;;;;;;;19.30;3.55;;;;;;;29.75;36.28;100016.45;1742122;82;21435;-69
2022/08/22 08:36:04;;;;;;;19.05;3.65;;;;;;;29.78;36.50;100024.25;1733368;81;21453;-66
2022/08/22 08:38:47;;;;;;;14.35;3.95;;;;;;;29.83;36.34;100021.25;1678513;85;21032;-67
2022/08/22 08:41:59;;;;;;;16.42;4.10;;;;;;;29.84;36.36;100017.27;1758156;81;21469;-67
2022/08/22 08:45:08;;;;;;;14.65;3.95;;;;;;;29.83;36.90;100015.60;1678807;85;21185;-65
2022/08/22 08:47:45;;;;;;;15.25;3.87;;;;;;;29.96;36.87;100017.43;1745410;82;21074;-65
2022/08/22 08:50:36;;;;;;;12.45;3.42;;;;;;;30.14;36.17;100009.76;1745700;82;21043;-65
2022/08/22 08:53:37;;;;;;;20.12;3.52;;;;;;;30.36;35.61;100011.50;1746708;81;21059;-64
2022/08/22 08:56:44;;;;;;;17.60;3.70;;;;;;;30.46;35.26;100001.80;1761218;81;21456;-63
2022/08/22 09:00:10;;;;;;;16.30;3.47;;;;;;;30.46;35.55;100015.35;1679647;85;21072;-65
2022/08/22 09:03:06;;;;;;;12.90;3.50;;;;;;;30.45;34.67;100012.87;1750068;81;21082;-66
2022/08/22 09:05:59;;;;;;;15.70;3.30;;;;;;;30.43;34.46;100011.80;1601223;89;21171;-67
2022/08/22 09:08:55;;;;;;;21.35;3.25;;;;;;;30.37;34.13;100013.73;1601202;89;21549;-66
2022/08/22 09:11:57;;;;;;;17.42;3.65;;;;;;;30.17;33.75;100008.25;1601385;89;21133;-67
2022/08/22 09:15:04;;;;;;;65.87;5.15;;;;;;;29.97;34.27;100014.02;1601408;89;21091;-64
2022/08/22 09:18:09;;;;;;;14.78;3.50;;;;;;;29.85;34.02;100001.14;1603318;89;21137;-66
2022/08/22 09:20:59;;;;;;;19.40;3.85;;;;;;;29.68;34.45;100005.41;1598364;89;21131;-64
2022/08/22 09:24:03;;;;;;;16.87;3.22;;;;;;;29.49;34.97;99997.31;1598502;90;21103;-66
2022/08/22 09:27:06;;;;;;;20.17;3.30;;;;;;;29.47;35.22;100003.28;1598448;90;21074;-65
2022/08/22 09:29:45;;;;;;;22.02;3.45;;;;;;;29.41;34.81;99998.11;1622769;88;21127;-67
2022/08/22 09:32:34;;;;;;;22.55;3.65;;;;;;;29.36;34.10;99997.70;1623624;88;21110;-65
2022/08/22 09:35:13;;;;;;;;;;;;;;;29.31;33.23;99990.81;1610650;88;21099;-66
2022/08/22 09:38:17;;;;;;;29.23;4.12;;;;;;;29.27;33.97;99998.29;1598679;90;20157;-64
2022/08/22 09:41:07;;;;;;;23.27;3.52;;;;;;;29.28;32.94;99996.55;1566733;91;21563;-65
2022/08/22 09:43:45;;;;;;;22.73;3.47;;;;;;;29.27;33.08;99992.64;1640053;85;21146;-63
2022/08/22 09:46:22;;;;;;;19.80;3.75;;;;;;;29.28;32.47;99988.66;1666691;86;21072;-64
2022/08/22 09:49:04;;;;;;;27.55;3.92;;;;;;;29.16;32.73;99988.47;1681585;85;21056;-63
2022/08/22 09:51:57;;;;;;;24.45;3.52;;;;;;;29.12;33.09;99995.93;1718817;83;21079;-65
2022/08/22 09:54:40;;;;;;;29.55;3.90;;;;;;;29.07;32.97;99996.09;1732683;81;21090;-64
2022/08/22 09:57:40;;;;;;;22.60;3.52;;;;;;;29.05;32.94;99993.60;1672109;85;21045;-66
2022/08/22 10:00:20;;;;;;;30.23;3.80;;;;;;;29.05;33.39;100000.66;1687284;84;21036;-67
2022/08/22 10:03:01;;;;;;;30.23;4.00;;;;;;;29.01;33.33;99994.02;1688625;84;21095;-67
2022/08/22 10:05:45;;;;;;;26.37;3.62;;;;;;;28.98;33.56;99994.67;1709306;84;21064;-64
2022/08/22 10:08:34;;;;;;;26.23;3.77;;;;;;;28.92;33.52;99986.95;1708818;83;21058;-67
2022/08/22 10:11:20;;;;;;;27.32;4.30;;;;;;;28.88;34.08;99999.23;1709260;84;21070;-65
2022/08/22 10:14:23;;;;;;;37.83;4.78;;;;;;;28.79;32.95;99998.35;1738389;81;21028;-66
2022/08/22 10:17:22;;;;;;;35.40;4.40;;;;;;;28.58;33.31;99997.53;1764030;81;21061;-66
2022/08/22 10:20:12;;;;;;;34.25;4.25;;;;;;;28.58;33.31;99997.53;1684487;85;21058;-67
2022/08/22 10:23:20;;;;;;;25.23;3.77;;;;;;;28.55;33.35;100002.41;1709252;84;21036;-65
2022/08/22 10:25:53;;;;;;;31.48;4.67;;;;;;;28.50;33.88;100001.16;1675103;85;21065;-62
2022/08/22 10:28:45;;;;;;;37.42;4.87;;;;;;;28.53;33.75;100008.12;1723629;82;21055;-65
2022/08/22 10:31:36;;;;;;;42.88;5.70;;;;;;;28.54;33.82;100008.38;1704397;84;21011;-66
2022/08/22 10:34:15;;;;;;;32.28;4.65;;;;;;;28.54;33.92;100006.39;1738396;81;21024;-66
2022/08/22 10:37:07;;;;;;;37.00;5.42;;;;;;;28.59;34.17;100001.18;1661934;84;21147;-66
2022/08/22 10:39:58;;;;;;;34.80;4.70;;;;;;;28.60;34.35;100013.54;1667902;85;21301;-67
2022/08/22 10:42:44;;;;;;;30.95;4.85;;;;;;;28.56;34.41;100013.11;1683506;84;21016;-64
2022/08/22 10:45:33;;;;;;;33.80;5.00;;;;;;;28.44;34.67;100010.09;1735866;83;21136;-67
2022/08/22 10:48:33;;;;;;;35.43;5.00;;;;;;;28.35;35.44;100003.02;1735962;83;21027;-66
2022/08/22 10:51:07;;;;;;;38.55;5.33;;;;;;;28.37;35.40;100014.21;1735760;82;20956;-66
2022/08/22 10:53:55;;;;;;;29.12;4.97;;;;;;;28.34;35.41;100006.98;1736655;81;20999;-67
2022/08/22 10:57:08;;;;;;;39.53;5.58;;;;;;;28.31;35.56;99999.19;1747580;82;21071;-67
2022/08/22 10:59:47;;;;;;;37.67;4.90;;;;;;;28.32;35.70;100000.84;1748201;82;21341;-67
2022/08/22 11:02:48;;;;;;;47.58;8.28;;;;;;;28.30;35.79;100005.40;1755145;81;21083;-71
2022/08/22 11:05:40;;;;;;;39.25;5.55;;;;;;;28.34;36.17;100006.98;1651487;86;21035;-69
2022/08/22 11:08:42;;;;;;;32.75;5.37;;;;;;;28.38;36.23;100003.19;1715778;83;21027;-71
2022/08/22 11:11:56;;;;;;;49.27;5.80;;;;;;;28.39;36.17;99999.22;1716193;83;21098;-73
2022/08/22 11:14:30;;;;;;;45.48;7.03;;;;;;;28.38;36.29;100013.05;1725267;82;21027;-70
2022/08/22 11:17:28;;;;;;;57.35;11.75;;;;;;;28.35;36.27;99998.78;1744388;82;21012;-69
2022/08/22 11:20:22;;;;;;;47.10;6.20;;;;;;;28.35;36.56;100002.44;1744857;82;21055;-71
2022/08/22 11:23:20;;;;;;;38.40;5.70;;;;;;;28.38;36.60;100002.36;1744877;81;21494;-71
2022/08/22 11:26:14;;;;;;;48.92;5.75;;;;;;;28.42;36.68;100009.00;1758342;81;21339;-70
2022/08/22 11:28:56;;;;;;;39.90;5.05;;;;;;;28.44;36.22;100006.69;1758186;81;21432;-71
2022/08/22 11:31:49;;;;;;;51.13;6.45;;;;;;;28.42;36.28;100000.55;1758338;81;20992;-72
2022/08/22 11:34:54;;;;;;;45.52;6.03;;;;;;;28.42;36.34;100000.55;1678823;85;21060;-71
2022/08/22 11:38:00;;;;;;;45.58;5.90;;;;;;;28.39;36.54;100001.20;1716077;83;21055;-72
2022/08/22 11:40:39;;;;;;;45.43;6.37;;;;;;;28.39;36.43;99996.97;1718156;82;21158;-71
2022/08/22 11:43:35;;;;;;;55.78;6.97;;;;;;;28.42;36.39;99996.32;1679088;84;21056;-71
2022/08/22 11:46:25;;;;;;;55.00;7.20;;;;;;;28.45;35.78;99987.79;1735447;82;21025;-68
2022/08/22 11:49:31;;;;;;;45.12;6.47;;;;;;;28.47;35.59;100000.41;1742005;81;21032;-73
2022/08/22 11:52:24;;;;;;;57.00;6.40;;;;;;;28.49;35.38;99994.44;1757897;81;21040;-73
2022/08/22 11:55:07;;;;;;;51.23;7.95;;;;;;;28.52;35.32;99993.20;1696914;84;21048;-71
2022/08/22 11:57:50;;;;;;;59.55;7.97;;;;;;;28.56;35.20;100001.25;1738709;82;21050;-74
2022/08/22 12:00:40;;;;;;;67.27;8.20;;;;;;;28.60;34.84;99999.44;1726039;81;21022;-73
2022/08/22 12:03:38;;;;;;;65.75;8.63;;;;;;;28.63;34.58;99999.40;1716072;81;21032;-73
2022/08/22 12:06:38;;;;;;;52.13;7.80;;;;;;;28.66;34.09;99995.34;1766534;81;21105;-74
2022/08/22 12:09:34;;;;;;;53.23;7.00;;;;;;;28.69;34.24;99998.92;1696295;84;21456;-72
2022/08/22 12:12:44;;;;;;;70.47;7.55;;;;;;;28.74;33.91;99992.29;1761338;81;21075;-71
2022/08/22 12:15:20;;;;;;;;;;;;;;;28.79;33.28;99995.53;1768952;81;21059;-73
2022/08/22 12:18:33;;;;;;;62.25;7.42;;;;;;;28.81;32.77;99999.69;1760928;80;20473;-72
2022/08/22 12:21:44;;;;;;;54.13;7.40;;;;;;;28.80;32.96;99994.37;1718846;82;21075;-72
2022/08/22 12:24:23;;;;;;;62.13;7.40;;;;;;;28.75;33.26;99991.13;1763767;81;21031;-73
2022/08/22 12:27:00;;;;;;;59.60;8.23;;;;;;;28.72;33.60;99986.15;1755883;81;21097;-73
2022/08/22 12:29:47;;;;;;;62.60;8.10;;;;;;;28.70;33.56;99986.48;1683929;85;21175;-71
2022/08/22 12:33:05;;;;;;;67.87;7.53;;;;;;;28.68;33.92;99993.02;1763743;81;21027;-71
2022/08/22 12:36:04;;;;;;;68.75;7.47;;;;;;;28.68;34.28;99995.84;1759236;81;20999;-71
2022/08/22 12:38:52;;;;;;;59.27;8.15;;;;;;;28.70;34.40;99996.34;1751013;82;21019;-70
2022/08/22 12:41:43;;;;;;;58.13;6.90;;;;;;;28.75;34.31;99995.36;1752252;81;21105;-73
2022/08/22 12:44:39;;;;;;;51.48;7.03;;;;;;;28.75;34.51;100002.41;1751925;81;21058;-72
2022/08/22 12:47:34;;;;;;;56.13;7.67;;;;;;;28.77;34.34;100002.91;1695804;84;21035;-70
2022/08/22 12:50:37;;;;;;;63.65;7.15;;;;;;;28.78;34.42;99997.52;1712725;84;21067;-71
2022/08/22 12:53:25;;;;;;;60.50;6.87;;;;;;;28.80;34.45;99992.96;1730370;82;21058;-68
2022/08/22 12:56:22;;;;;;;59.20;6.92;;;;;;;28.83;33.95;99988.91;1716847;83;21070;-69
2022/08/22 12:59:15;;;;;;;63.78;6.92;;;;;;;28.85;33.88;99991.42;1715642;83;21074;-71
2022/08/22 13:01:48;;;;;;;75.57;7.97;;;;;;;28.86;34.19;99999.56;1715708;83;21039;-71
2022/08/22 13:04:24;;;;;;;62.33;7.78;;;;;;;28.84;33.38;99990.59;1716469;82;21083;-72